Time;durP1;ratioP1;P1;durP2;ratioP2;P2;SDS_P1;SDS_P2;PMS_P1;PMS_P2;Temp;Humidity;BMP_temperature;BMP_pressure;BME280_temperature;BME280_humidity;BME280_pressure;Samples;Min_cycle;Max_cycle;Signal;HPM_P1;HPM_P2
2023/11/29 00:01:23;;;;;;;7.73;6.03;;;0.40;94.10;;;;;;5046872;28;20204;-83
2023/11/29 00:03:52;;;;;;;7.57;5.77;;;0.50;94.10;;;;;;5050377;28;20621;-83
2023/11/29 00:06:19;;;;;;;7.17;5.70;;;0.50;93.40;;;;;;5044355;28;20222;-82
2023/11/29 00:08:45;;;;;;;5.97;5.20;;;0.50;93.60;;;;;;5047594;28;20193;-83
2023/11/29 00:11:12;;;;;;;6.77;5.63;;;0.40;93.30;;;;;;5046330;28;20201;-84
2023/11/29 00:13:39;;;;;;;6.40;5.27;;;0.40;93.40;;;;;;5044676;28;20195;-83
2023/11/29 00:16:07;;;;;;;6.93;5.70;;;0.20;93.80;;;;;;5046197;28;20205;-84
2023/11/29 00:18:33;;;;;;;7.10;6.40;;;0.20;94.10;;;;;;5041699;28;20576;-83
2023/11/29 00:21:03;;;;;;;7.80;6.13;;;0.10;94.00;;;;;;5044525;28;20217;-84
2023/11/29 00:23:31;;;;;;;8.23;6.50;;;0.20;94.10;;;;;;5044271;28;20209;-84
2023/11/29 00:25:58;;;;;;;6.97;5.87;;;0.10;94.00;;;;;;5045102;28;20198;-83
2023/11/29 00:28:24;;;;;;;7.43;6.40;;;0.10;94.30;;;;;;5038857;28;20585;-84
2023/11/29 00:30:51;;;;;;;7.00;5.87;;;0.20;94.10;;;;;;5041339;28;20204;-83
2023/11/29 00:33:18;;;;;;;8.43;7.00;;;0.10;94.00;;;;;;5047329;28;20250;-83
2023/11/29 00:35:45;;;;;;;8.37;6.63;;;0.10;94.00;;;;;;5044075;28;20201;-83
2023/11/29 00:38:14;;;;;;;8.10;6.97;;;0.00;94.60;;;;;;5044180;28;20201;-83
2023/11/29 00:40:40;;;;;;;6.90;6.10;;;0.00;94.90;;;;;;5049848;28;20300;-84
2023/11/29 00:43:07;;;;;;;7.00;6.30;;;0.00;95.20;;;;;;5042402;28;20747;-83
2023/11/29 00:45:34;;;;;;;8.13;6.30;;;0.00;95.10;;;;;;5039648;28;20563;-83
2023/11/29 00:48:01;;;;;;;7.77;6.47;;;0.00;94.70;;;;;;5044092;28;20666;-83
2023/11/29 00:50:28;;;;;;;7.17;6.17;;;0.10;94.40;;;;;;5047523;28;20198;-83
2023/11/29 00:52:56;;;;;;;8.70;7.27;;;0.10;94.70;;;;;;5033160;28;20626;-83
2023/11/29 00:55:24;;;;;;;7.40;6.47;;;0.10;94.80;;;;;;5046467;28;20240;-83
2023/11/29 00:57:51;;;;;;;9.57;6.80;;;0.10;94.80;;;;;;5046516;28;20208;-83
2023/11/29 01:00:18;;;;;;;7.33;6.53;;;0.10;95.10;;;;;;5048786;28;20210;-84
2023/11/29 01:02:45;;;;;;;8.97;7.40;;;0.10;95.20;;;;;;5048191;28;20939;-83
2023/11/29 01:05:12;;;;;;;9.13;7.17;;;0.10;95.50;;;;;;5048098;28;20635;-83
2023/11/29 01:07:39;;;;;;;8.37;6.73;;;0.00;95.90;;;;;;5048474;28;20224;-83
2023/11/29 01:10:06;;;;;;;7.73;6.93;;;0.10;95.60;;;;;;5047070;28;20209;-83
2023/11/29 01:12:35;;;;;;;8.40;6.50;;;0.10;95.60;;;;;;5042611;28;20297;-84
2023/11/29 01:15:02;;;;;;;8.03;6.50;;;0.10;95.20;;;;;;5047211;28;20198;-83
2023/11/29 01:17:29;;;;;;;7.17;6.03;;;0.20;95.20;;;;;;5049024;28;20256;-83
2023/11/29 01:19:56;;;;;;;8.43;6.90;;;0.20;94.80;;;;;;5046554;28;20202;-83
2023/11/29 01:22:23;;;;;;;9.43;7.40;;;0.30;95.10;;;;;;5041528;28;20202;-84
2023/11/29 01:24:50;;;;;;;9.03;7.30;;;0.30;94.90;;;;;;5041037;28;20202;-83
2023/11/29 01:27:17;;;;;;;8.23;7.00;;;0.20;94.80;;;;;;5047244;28;20222;-83
2023/11/29 01:29:45;;;;;;;7.57;6.70;;;0.20;95.10;;;;;;5045271;28;20681;-83
2023/11/29 01:32:12;;;;;;;9.00;7.63;;;0.10;95.20;;;;;;5044027;28;20205;-84
2023/11/29 01:34:42;;;;;;;9.83;7.17;;;0.30;95.50;;;;;;5044883;28;20659;-84
2023/11/29 01:37:09;;;;;;;8.27;7.37;;;0.50;95.00;;;;;;5044912;28;20203;-83
2023/11/29 01:39:36;;;;;;;8.20;6.87;;;0.60;94.90;;;;;;5041144;28;20622;-83
2023/11/29 01:42:03;;;;;;;8.40;7.47;;;0.50;94.80;;;;;;5049296;28;20209;-83
2023/11/29 01:44:30;;;;;;;8.23;7.13;;;0.40;94.60;;;;;;5047040;28;20198;-83
2023/11/29 01:46:58;;;;;;;9.00;7.37;;;0.50;94.40;;;;;;5045101;28;20233;-84
2023/11/29 01:49:26;;;;;;;8.40;6.83;;;0.40;94.30;;;;;;5045518;28;20563;-83
2023/11/29 01:51:53;;;;;;;10.13;7.43;;;0.30;94.50;;;;;;5043496;28;20237;-84
2023/11/29 01:54:20;;;;;;;8.90;7.20;;;0.20;95.00;;;;;;5040123;28;20641;-83
2023/11/29 01:56:47;;;;;;;10.00;7.70;;;0.20;94.90;;;;;;5043176;28;20208;-83
2023/11/29 01:59:13;;;;;;;9.70;7.70;;;0.00;94.90;;;;;;5041067;28;20198;-83
2023/11/29 02:01:41;;;;;;;8.83;7.67;;;0.00;94.80;;;;;;5043483;28;20229;-84
2023/11/29 02:04:09;;;;;;;10.00;8.23;;;-0.20;95.10;;;;;;5043262;28;20290;-83
2023/11/29 02:06:37;;;;;;;10.37;7.90;;;-0.20;95.70;;;;;;5039492;28;20207;-85
2023/11/29 02:09:04;;;;;;;8.77;7.30;;;-0.20;95.80;;;;;;5044743;28;20240;-83
2023/11/29 02:11:38;;;;;;;9.90;7.70;;;-0.10;95.40;;;;;;5044928;28;20198;-83
2023/11/29 02:14:05;;;;;;;9.80;7.87;;;-0.20;95.60;;;;;;5043234;28;20657;-83
2023/11/29 02:16:32;;;;;;;9.13;7.83;;;0.00;95.30;;;;;;5045929;28;20562;-83
2023/11/29 02:18:59;;;;;;;9.23;7.50;;;0.10;95.40;;;;;;5043528;28;20202;-83
2023/11/29 02:21:27;;;;;;;9.10;7.73;;;0.20;95.20;;;;;;5044705;28;20220;-84
2023/11/29 02:24:00;;;;;;;10.40;8.30;;;0.10;95.70;;;;;;5041139;28;20725;-84
2023/11/29 02:26:29;;;;;;;9.67;8.07;;;0.10;95.70;;;;;;5043046;28;20199;-84
2023/11/29 02:28:56;;;;;;;9.77;7.97;;;0.20;95.80;;;;;;5045409;28;20579;-83
2023/11/29 02:31:23;;;;;;;11.40;8.33;;;0.20;95.60;;;;;;5042336;28;20202;-83
2023/11/29 02:33:50;;;;;;;10.90;8.50;;;0.30;95.50;;;;;;5044102;28;20198;-83
2023/11/29 02:36:16;;;;;;;10.10;8.43;;;0.20;95.30;;;;;;5044840;28;20190;-83
2023/11/29 02:38:43;;;;;;;9.37;7.53;;;0.20;95.90;;;;;;5047413;28;20202;-83
2023/11/29 02:41:10;;;;;;;9.37;7.90;;;0.20;95.60;;;;;;5043474;28;20194;-83
2023/11/29 02:43:38;;;;;;;9.83;8.17;;;0.20;95.60;;;;;;5038439;28;20214;-83
2023/11/29 02:46:05;;;;;;;9.47;7.60;;;0.10;95.80;;;;;;5041277;28;20198;-84
2023/11/29 02:48:32;;;;;;;9.13;8.10;;;0.00;96.30;;;;;;5044897;28;20232;-83
2023/11/29 02:50:59;;;;;;;9.57;8.07;;;0.10;96.40;;;;;;5045276;28;20905;-84
2023/11/29 02:53:26;;;;;;;10.83;8.97;;;0.20;95.90;;;;;;5043475;28;20193;-85
2023/11/29 02:55:53;;;;;;;10.53;8.53;;;0.20;95.90;;;;;;5047142;28;20607;-83
2023/11/29 02:58:20;;;;;;;9.80;8.20;;;0.20;96.00;;;;;;5045951;28;20670;-83
2023/11/29 03:00:48;;;;;;;11.33;9.07;;;0.20;95.70;;;;;;5042533;28;20594;-83
2023/11/29 03:03:15;;;;;;;9.47;8.30;;;0.20;96.40;;;;;;5046566;28;20202;-84
2023/11/29 03:05:42;;;;;;;10.83;8.83;;;0.20;96.40;;;;;;5044331;28;20239;-83
2023/11/29 03:08:09;;;;;;;12.03;9.00;;;0.30;96.00;;;;;;5047100;28;20240;-83
2023/11/29 03:10:36;;;;;;;10.90;8.73;;;0.40;96.00;;;;;;5046896;28;20201;-83
2023/11/29 03:13:03;;;;;;;11.00;9.13;;;0.40;96.10;;;;;;5040196;28;20202;-83
2023/11/29 03:15:29;;;;;;;11.00;8.80;;;0.40;96.60;;;;;;5047530;28;20205;-83
2023/11/29 03:17:58;;;;;;;13.70;9.03;;;0.30;96.70;;;;;;5043765;28;20194;-83
2023/11/29 03:20:28;;;;;;;11.77;9.13;;;0.20;97.00;;;;;;5045053;28;20202;-84
2023/11/29 03:22:54;;;;;;;11.70;9.67;;;0.20;96.80;;;;;;5051679;28;20208;-83
2023/11/29 03:25:21;;;;;;;13.13;9.60;;;0.30;97.30;;;;;;5047271;28;20202;-84
2023/11/29 03:27:48;;;;;;;11.57;9.33;;;0.40;96.70;;;;;;5048272;28;20234;-83
2023/11/29 03:30:15;;;;;;;13.07;9.90;;;0.30;96.70;;;;;;5042823;28;20204;-83
2023/11/29 03:32:42;;;;;;;11.07;9.33;;;0.40;96.70;;;;;;5046628;28;20213;-83
2023/11/29 03:35:10;;;;;;;11.20;9.30;;;0.30;96.90;;;;;;5042207;28;20202;-83
2023/11/29 03:37:37;;;;;;;10.90;8.97;;;0.20;96.60;;;;;;5050407;28;20211;-83
2023/11/29 03:40:05;;;;;;;12.03;9.57;;;0.20;96.70;;;;;;5049542;28;20290;-83
2023/11/29 03:42:32;;;;;;;12.70;10.00;;;0.20;97.00;;;;;;5050150;28;20210;-83
2023/11/29 03:45:00;;;;;;;12.13;9.77;;;0.30;96.90;;;;;;5046925;28;20200;-83
2023/11/29 03:47:27;;;;;;;11.70;9.50;;;0.40;96.20;;;;;;5046368;28;20318;-83
2023/11/29 03:49:54;;;;;;;13.63;9.73;;;0.30;96.60;;;;;;5045776;28;20674;-84
2023/11/29 03:52:24;;;;;;;11.67;9.87;;;0.30;96.70;;;;;;5047221;28;20233;-84
2023/11/29 03:54:51;;;;;;;11.97;9.70;;;0.30;96.70;;;;;;5046598;28;20722;-83
2023/11/29 03:57:18;;;;;;;13.03;10.30;;;0.30;96.70;;;;;;5050824;28;20201;-84
2023/11/29 03:59:45;;;;;;;12.13;10.10;;;0.30;97.00;;;;;;5052842;28;20198;-82
2023/11/29 04:02:12;;;;;;;14.00;10.20;;;0.20;96.70;;;;;;5040527;28;20667;-84
2023/11/29 04:04:39;;;;;;;12.80;10.33;;;0.20;96.80;;;;;;5047052;28;20194;-84
2023/11/29 04:07:06;;;;;;;14.33;10.57;;;0.20;97.00;;;;;;5051186;28;20206;-83
2023/11/29 04:09:34;;;;;;;13.10;10.70;;;0.20;96.90;;;;;;5045297;28;20220;-83
2023/11/29 04:12:01;;;;;;;15.53;10.90;;;0.30;96.70;;;;;;5046733;28;20206;-83
2023/11/29 04:14:28;;;;;;;14.60;10.57;;;0.30;96.70;;;;;;5044089;28;20260;-84
2023/11/29 04:16:55;;;;;;;13.17;10.50;;;0.20;97.00;;;;;;5044888;28;20194;-83
2023/11/29 04:19:22;;;;;;;14.07;10.17;;;0.20;97.00;;;;;;5046707;28;20666;-83
2023/11/29 04:21:49;;;;;;;14.87;10.73;;;0.20;97.40;;;;;;5045591;28;20205;-83
2023/11/29 04:24:16;;;;;;;13.43;10.63;;;0.10;97.50;;;;;;5047127;28;20205;-83
2023/11/29 04:26:44;;;;;;;13.00;9.77;;;0.10;97.20;;;;;;5050123;28;20194;-83
2023/11/29 04:29:12;;;;;;;13.93;10.53;;;0.00;97.50;;;;;;5047947;28;20582;-83
2023/11/29 04:31:39;;;;;;;13.57;10.43;;;0.00;97.40;;;;;;5051015;28;20218;-83
2023/11/29 04:34:08;;;;;;;13.73;10.77;;;0.10;97.50;;;;;;5046372;28;20194;-83
2023/11/29 04:36:35;;;;;;;14.57;10.47;;;0.00;97.00;;;;;;5039896;28;20220;-83
2023/11/29 04:39:02;;;;;;;16.70;11.40;;;0.10;97.30;;;;;;5048214;28;20206;-84
2023/11/29 04:41:29;;;;;;;15.07;10.40;;;0.10;97.50;;;;;;5043094;28;20280;-83
2023/11/29 04:43:57;;;;;;;14.40;10.77;;;0.20;97.70;;;;;;5049537;28;20198;-83
2023/11/29 04:46:24;;;;;;;14.23;10.37;;;0.30;97.00;;;;;;5050204;28;20202;-83
2023/11/29 04:48:51;;;;;;;14.47;10.90;;;0.30;96.70;;;;;;5047647;28;20219;-84
2023/11/29 04:51:18;;;;;;;13.47;10.67;;;0.40;96.70;;;;;;5042576;28;20697;-83
2023/11/29 04:53:45;;;;;;;13.87;9.90;;;0.30;96.10;;;;;;5051977;28;20197;-82
2023/11/29 04:56:11;;;;;;;13.57;10.60;;;0.30;96.70;;;;;;5050728;28;20206;-83
2023/11/29 04:58:40;;;;;;;12.90;10.20;;;0.40;96.60;;;;;;5051489;28;20201;-83
2023/11/29 05:01:10;;;;;;;13.33;9.67;;;0.40;96.30;;;;;;5046694;28;20202;-83
2023/11/29 05:03:37;;;;;;;12.83;9.70;;;0.40;96.20;;;;;;5042716;28;20209;-83
2023/11/29 05:06:06;;;;;;;12.80;9.67;;;0.20;96.30;;;;;;5042752;28;20760;-84
2023/11/29 05:08:33;;;;;;;12.87;9.77;;;0.30;96.50;;;;;;5039852;28;20570;-83
2023/11/29 05:11:00;;;;;;;13.30;9.80;;;0.30;96.60;;;;;;5045436;28;20277;-83
2023/11/29 05:13:27;;;;;;;13.40;10.00;;;0.30;96.70;;;;;;5041049;28;20198;-83
2023/11/29 05:15:54;;;;;;;14.13;10.20;;;0.20;96.70;;;;;;5050914;28;20194;-84
2023/11/29 05:18:23;;;;;;;12.23;9.57;;;0.30;96.70;;;;;;5048236;28;20201;-83
2023/11/29 05:20:49;;;;;;;13.07;9.67;;;0.30;96.70;;;;;;5045644;28;20193;-83
2023/11/29 05:23:16;;;;;;;12.40;9.60;;;0.30;96.50;;;;;;5048462;28;20669;-83
2023/11/29 05:25:43;;;;;;;11.93;9.07;;;0.20;96.70;;;;;;5044271;28;20766;-83
2023/11/29 05:28:10;;;;;;;14.47;9.40;;;0.10;96.70;;;;;;5044247;28;20594;-82
2023/11/29 05:30:37;;;;;;;13.33;9.83;;;0.10;97.10;;;;;;5047285;28;20198;-83
2023/11/29 05:33:04;;;;;;;10.63;8.53;;;0.20;96.70;;;;;;5038478;28;20198;-83
2023/11/29 05:35:32;;;;;;;12.20;9.23;;;0.40;96.10;;;;;;5037648;28;20190;-83
2023/11/29 05:37:59;;;;;;;13.43;9.57;;;0.30;96.50;;;;;;5048519;28;20193;-83
2023/11/29 05:40:26;;;;;;;12.87;9.60;;;0.30;96.40;;;;;;5041275;28;20722;-84
2023/11/29 05:42:54;;;;;;;12.57;9.20;;;0.40;95.80;;;;;;5048520;28;20581;-82
2023/11/29 05:45:21;;;;;;;13.23;9.50;;;0.40;96.20;;;;;;5045078;28;20749;-83
2023/11/29 05:47:47;;;;;;;13.00;9.53;;;0.30;96.30;;;;;;5038060;28;20201;-84
2023/11/29 05:50:14;;;;;;;13.57;9.70;;;0.30;96.10;;;;;;5048401;28;20674;-83
2023/11/29 05:52:43;;;;;;;14.40;9.57;;;0.20;96.20;;;;;;5048882;28;20308;-84
2023/11/29 05:55:10;;;;;;;12.97;9.93;;;0.20;96.10;;;;;;5041868;28;20213;-83
2023/11/29 05:57:37;;;;;;;14.23;10.23;;;0.10;96.30;;;;;;5042513;28;20198;-83
2023/11/29 06:00:09;;;;;;;12.70;9.33;;;0.00;96.60;;;;;;5050110;28;20194;-83
2023/11/29 06:02:37;;;;;;;13.27;9.70;;;0.10;97.00;;;;;;5047995;28;20213;-83
2023/11/29 06:05:05;;;;;;;15.50;10.60;;;0.00;96.60;;;;;;5045284;28;20198;-83
2023/11/29 06:07:33;;;;;;;14.00;10.13;;;0.00;96.60;;;;;;5045576;28;20206;-83
2023/11/29 06:10:03;;;;;;;15.13;10.47;;;-0.10;96.90;;;;;;5039504;28;20223;-83
2023/11/29 06:12:30;;;;;;;14.80;10.13;;;-0.20;97.00;;;;;;5045460;28;20204;-83
2023/11/29 06:14:56;;;;;;;15.07;10.43;;;-0.30;97.40;;;;;;5046467;28;20204;-83
2023/11/29 06:17:24;;;;;;;16.83;10.97;;;-0.40;97.70;;;;;;5045175;28;20218;-83
2023/11/29 06:19:51;;;;;;;12.83;9.50;;;-0.40;98.20;;;;;;5044608;28;20205;-84
2023/11/29 06:22:18;;;;;;;14.43;9.93;;;-0.40;98.70;;;;;;5040684;28;20213;-83
2023/11/29 06:24:45;;;;;;;14.10;9.90;;;-0.20;98.50;;;;;;5047038;28;20202;-83
2023/11/29 06:27:16;;;;;;;15.30;9.93;;;-0.20;98.10;;;;;;5044872;28;20201;-83
2023/11/29 06:29:43;;;;;;;14.87;10.40;;;-0.30;98.10;;;;;;5039761;28;20233;-83
2023/11/29 06:32:10;;;;;;;18.10;11.00;;;-0.30;98.20;;;;;;5046313;28;20213;-83
2023/11/29 06:34:37;;;;;;;16.13;10.43;;;-0.40;98.50;;;;;;5042905;28;20213;-83
2023/11/29 06:37:04;;;;;;;17.07;10.60;;;-0.50;99.10;;;;;;5041728;28;20210;-85
2023/11/29 06:39:31;;;;;;;17.23;10.93;;;-0.50;99.00;;;;;;5044258;28;20566;-83
2023/11/29 06:41:57;;;;;;;15.33;10.83;;;-0.50;99.10;;;;;;5044487;28;20268;-83
2023/11/29 06:44:26;;;;;;;17.87;11.40;;;-0.60;99.30;;;;;;5044747;28;20206;-84
2023/11/29 06:46:54;;;;;;;16.50;10.80;;;-0.60;99.60;;;;;;5046697;28;20198;-83
2023/11/29 06:49:21;;;;;;;15.60;11.07;;;-0.60;99.80;;;;;;5045165;28;20921;-83
2023/11/29 06:51:49;;;;;;;15.10;10.20;;;-0.60;99.80;;;;;;5043069;28;20210;-84
2023/11/29 06:54:16;;;;;;;16.17;10.80;;;-0.60;99.80;;;;;;5038313;28;20757;-84
2023/11/29 06:56:42;;;;;;;15.60;10.87;;;-0.60;99.90;;;;;;5049978;28;20203;-83
2023/11/29 06:59:11;;;;;;;18.70;11.67;;;-0.60;99.90;;;;;;5043646;28;20204;-85
2023/11/29 07:01:39;;;;;;;16.10;10.40;;;-0.40;99.90;;;;;;5046931;28;20205;-82
2023/11/29 07:04:06;;;;;;;18.07;10.83;;;-0.30;99.10;;;;;;5043920;28;20288;-83
2023/11/29 07:06:33;;;;;;;18.90;10.97;;;-0.20;98.90;;;;;;5051055;28;20225;-84
2023/11/29 07:09:00;;;;;;;17.80;11.07;;;-0.30;99.10;;;;;;5049784;28;20213;-83
2023/11/29 07:11:27;;;;;;;18.97;11.53;;;-0.30;99.10;;;;;;5056500;28;20657;-83
2023/11/29 07:13:55;;;;;;;18.87;11.20;;;-0.40;99.10;;;;;;5041108;28;20198;-84
2023/11/29 07:16:22;;;;;;;17.87;11.17;;;-0.40;99.10;;;;;;5045413;28;20271;-83
2023/11/29 07:18:51;;;;;;;16.50;10.73;;;-0.50;99.40;;;;;;5044476;28;20598;-83
2023/11/29 07:21:18;;;;;;;16.67;11.40;;;-0.40;99.60;;;;;;5044449;28;20622;-83
2023/11/29 07:23:46;;;;;;;17.77;10.90;;;-0.40;99.30;;;;;;5042069;28;20737;-83
2023/11/29 07:26:13;;;;;;;15.50;10.73;;;-0.30;99.30;;;;;;5038374;28;20221;-83
2023/11/29 07:28:40;;;;;;;14.57;10.43;;;-0.30;99.10;;;;;;5041273;28;20557;-83
2023/11/29 07:31:09;;;;;;;15.83;10.10;;;-0.30;99.10;;;;;;5038478;28;20691;-83
2023/11/29 07:33:36;;;;;;;16.50;10.47;;;-0.30;99.20;;;;;;5042691;28;20766;-83
2023/11/29 07:36:11;;;;;;;14.30;9.93;;;-0.30;99.70;;;;;;5044249;28;20209;-83
2023/11/29 07:38:38;;;;;;;13.90;9.97;;;-0.20;99.30;;;;;;5039573;28;20212;-84
2023/11/29 07:41:05;;;;;;;15.97;9.63;;;0.00;99.20;;;;;;5038112;28;20191;-84
2023/11/29 07:43:32;;;;;;;16.33;10.43;;;0.20;98.50;;;;;;5040426;28;20191;-83
2023/11/29 07:45:59;;;;;;;16.60;10.73;;;0.20;97.70;;;;;;5049405;28;20209;-83
2023/11/29 07:48:26;;;;;;;13.43;9.70;;;0.30;97.20;;;;;;5046914;28;20198;-82
2023/11/29 07:50:56;;;;;;;13.70;9.93;;;0.30;97.40;;;;;;5045383;28;20713;-83
2023/11/29 07:53:25;;;;;;;14.80;10.37;;;0.20;97.40;;;;;;5048126;28;20205;-83
2023/11/29 07:55:51;;;;;;;14.67;10.23;;;0.20;97.40;;;;;;5049575;28;21016;-83
2023/11/29 07:58:19;;;;;;;15.57;9.57;;;0.10;97.80;;;;;;5048804;28;20208;-83
2023/11/29 08:00:46;;;;;;;13.33;9.40;;;0.10;98.00;;;;;;5050078;28;20210;-85
2023/11/29 08:03:14;;;;;;;13.33;9.50;;;0.30;97.70;;;;;;5046534;28;20191;-83
2023/11/29 08:05:41;;;;;;;12.47;9.00;;;0.40;97.70;;;;;;5048132;28;20620;-84
2023/11/29 08:08:08;;;;;;;12.73;9.20;;;0.40;97.50;;;;;;5043426;28;20277;-83
2023/11/29 08:10:37;;;;;;;10.90;8.63;;;0.50;97.40;;;;;;5050899;28;20226;-83
2023/11/29 08:13:04;;;;;;;10.00;7.53;;;0.60;97.10;;;;;;5050092;28;20573;-83
2023/11/29 08:15:30;;;;;;;13.73;7.60;;;0.60;96.80;;;;;;5043805;28;20200;-85
2023/11/29 08:17:57;;;;;;;9.03;6.90;;;0.80;96.90;;;;;;5047676;28;20194;-83
2023/11/29 08:20:24;;;;;;;10.70;7.00;;;0.80;96.10;;;;;;5048655;28;20202;-83
2023/11/29 08:22:51;;;;;;;9.27;6.70;;;0.80;95.70;;;;;;5046507;28;20306;-83
2023/11/29 08:25:20;;;;;;;9.37;6.90;;;1.00;95.60;;;;;;5047478;28;20213;-85
2023/11/29 08:27:50;;;;;;;8.57;6.63;;;1.20;94.80;;;;;;5041678;28;20200;-85
2023/11/29 08:30:18;;;;;;;8.37;6.17;;;1.30;93.90;;;;;;5041233;28;20220;-83
2023/11/29 08:32:45;;;;;;;7.53;5.90;;;1.30;94.30;;;;;;5038765;28;20208;-82
2023/11/29 08:35:12;;;;;;;7.83;5.40;;;1.20;94.30;;;;;;5041755;28;20191;-83
2023/11/29 08:37:40;;;;;;;6.23;5.10;;;1.30;93.70;;;;;;5042793;28;20197;-83
2023/11/29 08:40:08;;;;;;;6.67;4.87;;;1.30;93.20;;;;;;5041412;28;20206;-84
2023/11/29 08:42:35;;;;;;;5.87;4.83;;;1.20;93.30;;;;;;5044883;28;20971;-83
2023/11/29 08:45:03;;;;;;;6.20;4.73;;;1.20;93.50;;;;;;5044737;28;20206;-83
2023/11/29 08:47:30;;;;;;;5.13;4.50;;;1.40;93.10;;;;;;5051410;28;20198;-83
2023/11/29 08:49:56;;;;;;;6.07;4.83;;;1.40;92.90;;;;;;5042337;28;20221;-82
2023/11/29 08:52:24;;;;;;;4.87;4.40;;;1.50;92.60;;;;;;5048082;28;20226;-83
2023/11/29 08:54:53;;;;;;;4.97;4.43;;;1.50;92.60;;;;;;5042719;28;20201;-81
2023/11/29 08:57:22;;;;;;;5.87;4.30;;;1.50;92.30;;;;;;5046585;28;20204;-83
2023/11/29 08:59:50;;;;;;;5.43;4.40;;;1.40;92.90;;;;;;5047481;28;20222;-81
2023/11/29 09:02:18;;;;;;;4.97;4.33;;;1.60;93.00;;;;;;5046514;28;20670;-82
2023/11/29 09:04:45;;;;;;;6.83;4.40;;;1.70;92.10;;;;;;5047737;28;20201;-82
2023/11/29 09:07:12;;;;;;;5.33;4.07;;;1.70;92.10;;;;;;5051002;28;20221;-82
2023/11/29 09:09:38;;;;;;;5.60;4.30;;;1.60;92.10;;;;;;5045854;28;20221;-84
2023/11/29 09:12:06;;;;;;;4.67;4.13;;;1.70;91.90;;;;;;5049264;28;20202;-88
2023/11/29 09:17:16;;;;;;;5.70;4.67;;;1.90;91.30;;;;;;5044491;28;20210;-88
2023/11/29 09:19:44;;;;;;;4.90;3.80;;;1.70;91.70;;;;;;5043074;28;20229;-87
2023/11/29 09:22:11;;;;;;;5.83;4.23;;;1.70;92.60;;;;;;5050324;28;20229;-87
2023/11/29 09:24:38;;;;;;;5.87;3.77;;;1.60;92.50;;;;;;5039570;28;20199;-85
2023/11/29 09:27:05;;;;;;;4.53;3.87;;;1.80;92.10;;;;;;5043071;28;20886;-85
2023/11/29 09:29:33;;;;;;;5.67;4.63;;;1.80;92.40;;;;;;5044931;28;20249;-86
2023/11/29 09:32:01;;;;;;;5.03;4.13;;;1.70;92.50;;;;;;5041471;28;20203;-86
2023/11/29 09:34:28;;;;;;;4.53;4.13;;;1.90;92.10;;;;;;5047432;28;20205;-88
2023/11/29 09:36:59;;;;;;;5.60;4.97;;;2.00;91.50;;;;;;5048649;28;20194;-84
2023/11/29 09:39:28;;;;;;;4.80;4.30;;;1.90;92.60;;;;;;5044912;28;20220;-83
2023/11/29 09:41:56;;;;;;;4.70;4.23;;;2.00;92.40;;;;;;5042738;28;20194;-84
2023/11/29 09:44:24;;;;;;;6.43;5.00;;;2.10;93.00;;;;;;5043414;28;20206;-81
2023/11/29 09:46:51;;;;;;;7.17;5.40;;;2.40;91.80;;;;;;5028666;28;20217;-85
2023/11/29 09:49:18;;;;;;;8.07;4.53;;;2.30;92.30;;;;;;5043750;28;20202;-83
2023/11/29 09:51:45;;;;;;;5.57;4.20;;;2.30;91.70;;;;;;5044932;28;20224;-81
2023/11/29 09:54:13;;;;;;;5.30;4.43;;;2.30;91.30;;;;;;5041412;28;20218;-83
2023/11/29 09:56:41;;;;;;;4.87;4.03;;;2.40;91.30;;;;;;5048131;28;20216;-82
2023/11/29 09:59:09;;;;;;;5.17;4.53;;;2.40;91.30;;;;;;5045497;28;20220;-84
2023/11/29 10:01:36;;;;;;;4.50;4.03;;;2.40;91.60;;;;;;5038422;28;20652;-82
2023/11/29 10:04:07;;;;;;;5.20;3.73;;;2.40;91.40;;;;;;5041127;28;20267;-82
2023/11/29 10:06:34;;;;;;;8.23;4.20;;;2.50;90.70;;;;;;5043164;28;20560;-82
2023/11/29 10:09:04;;;;;;;4.10;3.70;;;2.40;91.40;;;;;;5048843;28;20198;-82
2023/11/29 10:11:33;;;;;;;5.90;3.80;;;2.40;90.60;;;;;;5032822;28;20313;-81
2023/11/29 10:14:04;;;;;;;4.80;4.30;;;2.30;90.40;;;;;;5046720;28;20289;-82
2023/11/29 10:16:30;;;;;;;4.23;3.83;;;2.50;91.70;;;;;;5047472;28;20197;-82
2023/11/29 10:18:57;;;;;;;5.27;4.57;;;2.50;91.30;;;;;;5044294;28;20198;-81
2023/11/29 10:21:24;;;;;;;4.60;4.10;;;2.50;90.90;;;;;;5039654;28;20242;-82
2023/11/29 10:23:51;;;;;;;4.30;3.90;;;2.90;90.40;;;;;;5043916;28;20230;-83
2023/11/29 10:26:18;;;;;;;5.67;3.87;;;3.00;89.30;;;;;;5043263;28;20196;-82
2023/11/29 10:28:46;;;;;;;4.77;4.27;;;3.30;88.70;;;;;;5027385;28;20201;-82
2023/11/29 10:31:14;;;;;;;5.17;4.37;;;3.30;87.90;;;;;;5047254;28;20214;-83
2023/11/29 10:33:46;;;;;;;4.60;4.07;;;3.20;85.60;;;;;;5044143;28;20202;-82
2023/11/29 10:36:13;;;;;;;4.27;3.80;;;3.30;84.50;;;;;;5038709;28;20210;-85
2023/11/29 10:38:46;;;;;;;4.63;4.13;;;3.50;86.00;;;;;;5039987;28;20654;-82
2023/11/29 10:41:16;;;;;;;5.33;4.50;;;3.70;83.20;;;;;;5044870;28;20202;-82
2023/11/29 10:43:47;;;;;;;5.30;4.20;;;3.70;82.90;;;;;;5041447;28;20198;-83
2023/11/29 10:46:21;;;;;;;4.50;4.10;;;4.00;80.40;;;;;;5046970;28;20690;-85
2023/11/29 10:48:52;;;;;;;6.70;4.47;;;4.20;78.90;;;;;;5044293;28;20278;-84
2023/11/29 10:51:20;;;;;;;4.33;3.90;;;4.40;76.70;;;;;;5027945;28;20237;-87
2023/11/29 10:53:48;;;;;;;4.33;3.93;;;4.40;74.70;;;;;;5043486;28;20369;-86
2023/11/29 10:56:15;;;;;;;5.10;4.60;;;4.20;75.20;;;;;;5039206;28;20217;-86
2023/11/29 10:58:48;;;;;;;5.07;4.10;;;4.30;78.70;;;;;;5022223;28;20225;-86
2023/11/29 11:01:15;;;;;;;4.70;4.10;;;4.20;76.90;;;;;;5042420;28;20194;-84
2023/11/29 11:03:42;;;;;;;4.57;4.03;;;4.10;77.90;;;;;;5046872;28;20205;-85
2023/11/29 11:06:35;;;;;;;4.20;3.70;;;4.00;77.90;;;;;;5048563;28;20194;-82
2023/11/29 11:09:03;;;;;;;4.50;4.10;;;4.00;79.00;;;;;;5043121;28;20931;-84
2023/11/29 11:11:44;;;;;;;4.43;3.93;;;4.10;78.70;;;;;;5049261;28;20621;-81
2023/11/29 11:14:19;;;;;;;4.80;4.20;;;4.10;76.70;;;;;;5045348;28;20553;-83
2023/11/29 11:17:00;;;;;;;4.20;3.80;;;4.10;78.20;;;;;;5041718;28;20222;-82
2023/11/29 11:19:31;;;;;;;4.43;3.60;;;4.20;77.80;;;;;;5046947;28;20210;-81
2023/11/29 11:22:00;;;;;;;4.30;3.90;;;4.40;75.90;;;;;;5042483;28;20202;-84
2023/11/29 11:24:59;;;;;;;3.87;3.50;;;4.80;74.30;;;;;;5044739;28;20194;-81
2023/11/29 11:27:30;;;;;;;4.27;3.87;;;4.80;69.50;;;;;;5039300;28;20209;-82
2023/11/29 11:29:58;;;;;;;3.80;3.30;;;4.80;71.50;;;;;;5039390;28;20229;-86
2023/11/29 11:32:44;;;;;;;3.63;3.33;;;5.10;69.90;;;;;;5042281;28;20205;-87
2023/11/29 11:35:37;;;;;;;4.13;3.73;;;5.30;65.80;;;;;;5032578;28;20202;-87
2023/11/29 11:38:08;;;;;;;9.87;7.47;;;5.20;60.00;;;;;;5048553;28;20198;-84
2023/11/29 11:40:37;;;;;;;4.63;4.17;;;5.10;62.40;;;;;;5045127;28;20199;-85
2023/11/29 11:43:05;;;;;;;6.10;5.07;;;4.90;59.90;;;;;;5051101;28;20197;-85
2023/11/29 11:45:36;;;;;;;7.53;6.23;;;4.90;69.60;;;;;;5044538;28;20201;-88
2023/11/29 11:48:04;;;;;;;4.50;4.10;;;5.20;65.90;;;;;;5041603;28;20193;-85
2023/11/29 11:50:32;;;;;;;4.37;3.90;;;5.00;64.30;;;;;;5048912;28;20222;-85
2023/11/29 11:53:02;;;;;;;4.17;3.77;;;4.80;63.70;;;;;;5047517;28;20201;-86
2023/11/29 11:55:30;;;;;;;4.37;3.93;;;4.50;69.20;;;;;;5049279;28;20225;-85
2023/11/29 11:58:00;;;;;;;3.77;3.47;;;4.40;69.10;;;;;;5048764;28;20561;-87
2023/11/29 12:00:30;;;;;;;3.87;3.47;;;4.50;70.70;;;;;;5047574;28;20575;-83
2023/11/29 12:03:00;;;;;;;3.70;3.13;;;4.50;69.20;;;;;;5046836;28;20199;-86
2023/11/29 12:05:28;;;;;;;6.67;3.50;;;4.30;69.00;;;;;;5046803;28;20198;-85
2023/11/29 12:07:55;;;;;;;4.27;3.60;;;4.10;71.90;;;;;;5050856;28;20216;-85
2023/11/29 12:10:22;;;;;;;3.93;3.53;;;4.10;73.70;;;;;;5041576;28;20229;-89
2023/11/29 12:12:50;;;;;;;3.23;2.93;;;4.10;76.00;;;;;;5052151;28;20755;-86
2023/11/29 12:15:17;;;;;;;3.83;3.40;;;4.10;74.10;;;;;;5044976;28;20303;-86
2023/11/29 12:17:45;;;;;;;3.57;3.27;;;3.90;75.00;;;;;;5048906;28;20198;-87
2023/11/29 12:20:14;;;;;;;3.50;3.20;;;3.90;77.00;;;;;;5044265;28;20288;-86
2023/11/29 12:22:42;;;;;;;4.53;3.23;;;3.90;75.20;;;;;;5042148;28;20209;-85
2023/11/29 12:25:14;;;;;;;4.03;3.20;;;3.90;73.10;;;;;;5050813;28;20198;-86
2023/11/29 12:27:45;;;;;;;2.93;2.70;;;4.00;72.90;;;;;;5044555;28;20207;-86
2023/11/29 12:30:12;;;;;;;3.33;3.00;;;4.00;68.80;;;;;;5045809;28;20206;-87
2023/11/29 12:32:41;;;;;;;3.17;2.70;;;4.00;70.90;;;;;;5048241;28;20575;-87
2023/11/29 12:35:10;;;;;;;3.00;2.70;;;4.00;68.70;;;;;;5044193;28;20206;-85
2023/11/29 12:37:43;;;;;;;2.57;2.30;;;3.90;65.70;;;;;;5044038;28;20194;-88
2023/11/29 12:40:16;;;;;;;2.30;2.10;;;4.00;68.70;;;;;;5047270;28;20917;-85
2023/11/29 12:42:44;;;;;;;2.87;2.57;;;4.00;68.70;;;;;;5048907;28;20243;-88
2023/11/29 12:45:11;;;;;;;2.43;2.23;;;4.00;71.60;;;;;;5032810;28;20228;-85
2023/11/29 12:47:38;;;;;;;2.33;2.10;;;4.10;64.20;;;;;;5043832;28;20204;-86
2023/11/29 12:50:07;;;;;;;2.47;2.27;;;4.00;65.20;;;;;;5047393;28;20572;-84
2023/11/29 12:52:34;;;;;;;2.50;2.30;;;4.10;61.70;;;;;;5043588;28;20222;-82
2023/11/29 12:55:02;;;;;;;2.30;2.10;;;4.20;63.30;;;;;;5047089;28;20195;-86